This is the latest recevied weather packets stored in our database for station/object EA3HRE-13. If no packets are shown the sender has not sent any weather packets the latest 10 day(s).
| Time | Temp. | Humidity | Pressure | Rain* | Wind** | Luminosity | Snow |
|---|---|---|---|---|---|---|---|
| 1787758544 | 30.56° C | 100% | 1006.2 hPa | 0 mm | - | - | - |
| 1787757944 | 30.56° C | 100% | 1009.4 hPa | 0 mm | - | - | - |
| 1787757343 | 30.56° C | 100% | 1009.4 hPa | 0 mm | - | - | - |
| 1787756743 | 30.56° C | 100% | 1009.5 hPa | 0 mm | - | - | - |
| 1787756143 | 30.56° C | 100% | 1009.8 hPa | 0 mm | - | - | - |
| 1787755543 | 30.56° C | 100% | 1009.9 hPa | 0 mm | - | - | - |
| 1787754943 | 30.56° C | 100% | - | 0 mm | - | - | - |
| 1787754313 | 30.56° C | 100% | 1010.1 hPa | 0 mm | - | - | - |
| 1787753713 | 30.56° C | 100% | 1010.3 hPa | 0 mm | - | - | - |
| 1787753113 | 30.56° C | 100% | 1010.4 hPa | 0 mm | - | - | - |
| 1787752513 | 30.56° C | 100% | 1010.6 hPa | 0 mm | - | - | - |
| 1787751913 | 31.67° C | 100% | 1001.1 hPa | 0 mm | - | - | - |
| 1787751312 | 28.89° C | 100% | 1010.7 hPa | 0 mm | - | - | - |
| 1787750712 | 30.56° C | 100% | 1010.8 hPa | 0 mm | - | - | - |
| 1787750112 | 30.56° C | 100% | 1010.6 hPa | 0 mm | - | - | - |
| 1787749512 | 30.56° C | 100% | 1010.2 hPa | 0 mm | - | - | - |
| 1787748912 | 30° C | 100% | 1010 hPa | 0 mm | - | - | - |
| 1787748282 | 30.56° C | 100% | 1010.2 hPa | 0 mm | - | - | - |
| 1787747682 | 30° C | 100% | 1010 hPa | 0 mm | - | - | - |
| 1787747052 | 29.44° C | 100% | 1010.2 hPa | 0 mm | - | - | - |
| 1787746452 | 30° C | 100% | 1010.5 hPa | 0 mm | - | - | - |
| 1787745852 | 30° C | 100% | 1010.9 hPa | 0 mm | - | - | - |
| 1787745252 | 29.44° C | 100% | 1011.1 hPa | 0 mm | - | - | - |
| 1787744651 | 29.44° C | 100% | 1011.3 hPa | 0 mm | - | - | - |
| 1787744051 | 28.89° C | 100% | 1011.5 hPa | 0 mm | - | - | - |
* Rain latest hour (hover to see other rain measurements)
** Current wind speed in m/s (hover to see current wind gust speed)